createdAt,value
2019-01-11T04:31:59.769Z,2.70
2019-01-11T04:34:32.639Z,2.70
2019-01-11T04:37:05.307Z,2.60
2019-01-11T04:39:37.957Z,2.70
2019-01-11T04:42:10.616Z,2.70
2019-01-11T04:44:43.254Z,2.70
2019-01-11T04:47:15.919Z,2.70
2019-01-11T04:49:48.559Z,2.70
2019-01-11T04:52:21.214Z,2.70
2019-01-11T04:54:53.858Z,2.70
2019-01-11T04:57:26.519Z,2.80
2019-01-11T04:59:59.158Z,2.80
2019-01-11T05:02:31.823Z,2.80
2019-01-11T05:05:04.928Z,2.80
2019-01-11T05:07:37.588Z,2.90
2019-01-11T05:10:11.071Z,2.80
2019-01-11T05:12:43.735Z,2.80
2019-01-11T05:15:16.385Z,2.90
2019-01-11T05:17:49.272Z,2.90
2019-01-11T05:20:21.932Z,2.90
2019-01-11T05:22:54.592Z,2.90
2019-01-11T05:25:27.225Z,2.90
2019-01-11T05:27:59.887Z,2.90
2019-01-11T05:30:32.526Z,2.90
2019-01-11T05:33:05.192Z,2.90
2019-01-11T05:35:37.837Z,2.90
2019-01-11T05:38:10.491Z,2.90
2019-01-11T05:40:43.126Z,2.90
2019-01-11T05:43:16.019Z,2.90
2019-01-11T05:45:48.662Z,2.90
2019-01-11T05:48:21.550Z,2.90
2019-01-11T05:50:54.294Z,3.00
2019-01-11T05:53:26.959Z,3.00
2019-01-11T05:55:59.600Z,3.00
2019-01-11T05:58:32.264Z,3.00
2019-01-11T06:01:04.919Z,3.00
2019-01-11T06:03:37.582Z,3.00
2019-01-11T06:06:10.239Z,3.00
2019-01-11T06:08:42.891Z,3.00
2019-01-11T06:11:15.530Z,3.00
2019-01-11T06:13:48.426Z,3.00
2019-01-11T06:16:21.061Z,3.00
2019-01-11T06:18:53.747Z,3.10
2019-01-11T06:21:26.406Z,3.10
2019-01-11T06:23:59.066Z,3.10
2019-01-11T06:26:31.703Z,3.10
2019-01-11T06:29:04.363Z,3.10
2019-01-11T06:31:37.018Z,3.20
2019-01-11T06:34:09.915Z,3.10
2019-01-11T06:36:42.557Z,3.20
2019-01-11T06:39:16.344Z,3.20
2019-01-11T06:41:48.998Z,3.20
2019-01-11T06:44:21.654Z,3.20
2019-01-11T06:46:54.530Z,3.20
2019-01-11T06:49:27.178Z,3.20
2019-01-11T06:51:59.826Z,3.20
2019-01-11T06:54:32.478Z,3.20
2019-01-11T06:57:05.159Z,3.20
2019-01-11T06:59:37.833Z,3.30
2019-01-11T07:02:10.482Z,3.30
2019-01-11T07:04:43.371Z,3.30
2019-01-11T07:07:16.006Z,3.30
2019-01-11T07:09:48.909Z,3.30
2019-01-11T07:12:21.542Z,3.40
2019-01-11T07:14:54.214Z,3.40
2019-01-11T07:17:26.854Z,3.40
2019-01-11T07:20:05.513Z,3.40
2019-01-11T07:22:34.495Z,3.40
2019-01-11T07:25:07.414Z,3.40
2019-01-11T07:27:40.058Z,3.40
2019-01-11T07:30:12.738Z,3.40
2019-01-11T07:32:45.386Z,3.40
2019-01-11T07:35:18.030Z,3.40
2019-01-11T07:37:50.683Z,3.50
2019-01-11T07:40:23.395Z,3.50
2019-01-11T07:42:56.047Z,3.50
2019-01-11T07:45:28.935Z,3.50
2019-01-11T07:48:01.598Z,3.40
2019-01-11T07:50:34.271Z,3.40
2019-01-11T07:53:07.647Z,3.40
2019-01-11T07:55:40.303Z,3.40
2019-01-11T07:58:12.959Z,3.40
2019-01-11T08:00:45.638Z,3.40
2019-01-11T08:03:18.307Z,3.40
2019-01-11T08:05:50.974Z,3.40
2019-01-11T08:08:23.663Z,3.50
2019-01-11T08:10:56.670Z,3.50
2019-01-11T08:13:29.330Z,3.50
2019-01-11T08:16:01.999Z,3.50
2019-01-11T08:18:34.660Z,3.50
2019-01-11T08:21:07.308Z,3.50
2019-01-11T08:23:39.947Z,3.50
2019-01-11T08:26:12.642Z,3.50
2019-01-11T08:28:45.528Z,3.60
2019-01-11T08:31:18.434Z,3.60
2019-01-11T08:33:51.075Z,3.60
2019-01-11T08:36:24.214Z,3.70
2019-01-11T08:38:56.853Z,3.70
2019-01-11T08:41:29.526Z,3.70
2019-01-11T08:44:02.182Z,3.80
2019-01-11T08:46:34.853Z,3.80
2019-01-11T08:49:07.490Z,3.80
2019-01-11T08:51:40.150Z,3.80
2019-01-11T08:54:12.818Z,3.80
2019-01-11T08:56:45.488Z,3.80
2019-01-11T08:59:18.146Z,3.80
2019-01-11T09:01:51.057Z,3.80
2019-01-11T09:04:23.710Z,3.90
2019-01-11T09:06:56.380Z,3.90
2019-01-11T09:09:29.030Z,3.90
2019-01-11T09:12:01.697Z,3.90
2019-01-11T09:14:34.338Z,3.90
2019-01-11T09:17:06.994Z,3.90
2019-01-11T09:19:39.644Z,3.90
2019-01-11T09:22:12.347Z,3.90
2019-01-11T09:24:45.311Z,4.00
2019-01-11T09:27:17.978Z,4.00
2019-01-11T09:29:50.638Z,4.00
2019-01-11T09:32:23.551Z,4.00
2019-01-11T09:34:56.203Z,4.10
2019-01-11T09:37:28.866Z,4.20
2019-01-11T09:40:01.542Z,4.30
2019-01-11T09:42:34.906Z,4.40
2019-01-11T09:45:07.591Z,4.50
2019-01-11T09:47:40.479Z,4.50
2019-01-11T09:50:13.168Z,4.50
2019-01-11T09:52:45.830Z,4.60
2019-01-11T09:55:18.470Z,4.60
2019-01-11T09:57:51.122Z,4.60
2019-01-11T10:00:24.354Z,4.60
2019-01-11T10:02:57.007Z,4.60
2019-01-11T10:05:29.887Z,4.60
2019-01-11T10:08:02.598Z,4.60
2019-01-11T10:10:35.263Z,4.50
2019-01-11T10:13:07.918Z,4.50
2019-01-11T10:15:40.562Z,4.50
2019-01-11T10:18:13.223Z,4.50
2019-01-11T10:20:46.104Z,4.60
2019-01-11T10:23:18.986Z,4.70
2019-01-11T10:25:51.870Z,4.70
2019-01-11T10:28:24.754Z,4.70
2019-01-11T10:31:00.677Z,4.80
2019-01-11T10:33:36.127Z,4.80
2019-01-11T10:36:06.186Z,4.80
2019-01-11T10:38:39.070Z,4.80
2019-01-11T10:41:11.736Z,4.80
2019-01-11T10:43:44.397Z,4.80
2019-01-11T10:46:17.038Z,4.80
2019-01-11T10:48:49.706Z,4.80
2019-01-11T10:51:28.033Z,4.80
2019-01-11T10:53:57.002Z,4.80
2019-01-11T10:56:29.638Z,4.80
2019-01-11T10:59:02.298Z,4.80
2019-01-11T11:01:34.954Z,4.90
2019-01-11T11:04:07.611Z,4.90
2019-01-11T11:06:40.254Z,5.00
2019-01-11T11:09:12.914Z,5.00
2019-01-11T11:11:45.566Z,5.10
2019-01-11T11:14:18.246Z,5.10
2019-01-11T11:16:50.887Z,5.20
2019-01-11T11:19:23.554Z,5.20
2019-01-11T11:21:56.201Z,5.30
2019-01-11T11:24:28.894Z,5.40
2019-01-11T11:27:01.542Z,5.40
2019-01-11T11:29:34.199Z,5.50
2019-01-11T11:32:07.082Z,5.50
2019-01-11T11:34:40.018Z,5.50
2019-01-11T11:37:12.662Z,5.50
2019-01-11T11:39:45.378Z,5.50
2019-01-11T11:42:19.013Z,5.50
2019-01-11T11:44:51.686Z,5.50
2019-01-11T11:47:24.335Z,5.60
2019-01-11T11:49:56.992Z,5.70
2019-01-11T11:52:29.642Z,5.70
2019-01-11T11:55:02.397Z,5.80
2019-01-11T11:57:35.040Z,5.80
2019-01-11T12:00:10.918Z,5.80
2019-01-11T12:02:43.804Z,5.80
2019-01-11T12:05:16.509Z,5.80
2019-01-11T12:07:49.391Z,5.80
2019-01-11T12:10:22.278Z,5.90
2019-01-11T12:12:55.178Z,6.00
2019-01-11T12:15:27.910Z,6.00
2019-01-11T12:18:00.790Z,6.10
2019-01-11T12:20:33.466Z,6.10
2019-01-11T12:23:06.115Z,6.00
2019-01-11T12:25:38.770Z,6.00
2019-01-11T12:28:12.533Z,6.00
2019-01-11T12:30:45.486Z,6.00
2019-01-11T12:33:18.138Z,6.00
2019-01-11T12:35:51.022Z,6.00
2019-01-11T12:38:23.755Z,6.00
2019-01-11T12:40:56.402Z,6.00
2019-01-11T12:43:29.054Z,6.00
2019-01-11T12:46:01.709Z,6.00
2019-01-11T12:48:34.594Z,6.00
2019-01-11T12:51:07.299Z,5.90
2019-01-11T12:53:39.935Z,5.90
2019-01-11T12:56:12.591Z,6.00
2019-01-11T12:58:45.238Z,6.00
2019-01-11T13:01:18.134Z,6.10
2019-01-11T13:03:50.799Z,6.10
2019-01-11T13:06:23.443Z,6.20
2019-01-11T13:08:56.094Z,6.10
2019-01-11T13:11:28.758Z,6.10
2019-01-11T13:14:01.411Z,6.10
2019-01-11T13:16:34.070Z,6.00
2019-01-11T13:19:06.958Z,6.10
2019-01-11T13:21:39.631Z,6.10
2019-01-11T13:24:12.295Z,6.10
2019-01-11T13:26:44.962Z,6.20
2019-01-11T13:29:17.610Z,6.20
2019-01-11T13:31:50.299Z,6.30
2019-01-11T13:34:23.166Z,6.30
2019-01-11T13:36:55.833Z,6.30
2019-01-11T13:39:28.479Z,6.30
2019-01-11T13:42:01.126Z,6.40
2019-01-11T13:44:33.766Z,6.40
2019-01-11T13:47:06.419Z,6.30
2019-01-11T13:49:39.140Z,6.30
2019-01-11T13:52:11.798Z,6.30
2019-01-11T13:54:44.438Z,6.30
2019-01-11T13:57:17.093Z,6.30
2019-01-11T13:59:49.763Z,6.30
2019-01-11T14:02:22.409Z,6.30
2019-01-11T14:04:55.049Z,6.40
2019-01-11T14:07:27.699Z,6.40
2019-01-11T14:10:00.342Z,6.50
2019-01-11T14:12:33.007Z,6.50
2019-01-11T14:15:05.829Z,6.40
2019-01-11T14:17:38.479Z,6.40
2019-01-11T14:20:11.147Z,6.40
2019-01-11T14:22:43.794Z,6.40
2019-01-11T14:25:17.198Z,6.40
2019-01-11T14:27:49.905Z,6.40
2019-01-11T14:30:22.546Z,6.50
2019-01-11T14:32:55.206Z,6.40
2019-01-11T14:35:27.857Z,6.40
2019-01-11T14:38:00.498Z,6.40
2019-01-11T14:40:33.137Z,6.40
2019-01-11T14:43:05.786Z,6.40
2019-01-11T14:45:39.270Z,6.40
2019-01-11T14:48:12.046Z,6.40
2019-01-11T14:50:44.926Z,6.40
2019-01-11T14:53:17.589Z,6.40
2019-01-11T14:55:56.044Z,6.40
2019-01-11T14:58:28.672Z,6.40
2019-01-11T15:00:59.213Z,6.40
2019-01-11T15:03:31.854Z,6.50
2019-01-11T15:06:04.543Z,6.50
2019-01-11T15:08:37.212Z,6.50
2019-01-11T15:11:09.850Z,6.50
2019-01-11T15:13:42.498Z,6.50
2019-01-11T15:16:15.134Z,6.60
2019-01-11T15:18:47.790Z,6.60
2019-01-11T15:21:20.430Z,6.60
2019-01-11T15:23:53.111Z,6.60
2019-01-11T15:26:25.750Z,6.60
2019-01-11T15:28:58.407Z,6.70
2019-01-11T15:31:31.042Z,6.70
2019-01-11T15:34:03.703Z,6.60
2019-01-11T15:36:36.338Z,6.60
2019-01-11T15:39:08.992Z,6.60
2019-01-11T15:41:41.625Z,6.60
2019-01-11T15:44:14.291Z,6.60
2019-01-11T15:46:46.930Z,6.60
2019-01-11T15:49:19.591Z,6.60
2019-01-11T15:51:52.490Z,6.70
2019-01-11T15:54:25.198Z,6.60
2019-01-11T15:56:57.879Z,6.70
2019-01-11T15:59:30.531Z,6.70
2019-01-11T16:02:03.186Z,6.70
2019-01-11T16:04:36.134Z,6.70
2019-01-11T16:07:08.775Z,6.70
2019-01-11T16:09:55.382Z,6.70
2019-01-11T16:12:40.229Z,6.80
2019-01-11T16:15:40.559Z,6.80
2019-01-11T16:18:20.174Z,6.80
2019-01-11T16:20:52.825Z,6.80
2019-01-11T16:23:25.493Z,6.90
2019-01-11T16:25:58.146Z,6.90
2019-01-11T16:28:30.821Z,6.90
2019-01-11T16:31:03.490Z,6.90
2019-01-11T16:33:36.150Z,6.90
2019-01-11T16:36:08.809Z,7.00
2019-01-11T16:38:41.454Z,7.00
2019-01-11T16:41:14.112Z,7.00
2019-01-11T16:43:46.742Z,7.00
2019-01-11T16:46:19.409Z,7.00
2019-01-11T16:48:52.069Z,7.00
2019-01-11T16:51:24.726Z,7.00
2019-01-11T16:53:57.371Z,7.00
2019-01-11T16:56:30.022Z,7.00
2019-01-11T16:59:02.746Z,7.00
2019-01-11T17:01:35.394Z,7.00
2019-01-11T17:04:08.034Z,7.00
2019-01-11T17:06:40.707Z,7.00
2019-01-11T17:09:13.434Z,7.00
2019-01-11T17:11:46.205Z,7.00
2019-01-11T17:14:18.858Z,7.00
2019-01-11T17:16:51.534Z,7.10
2019-01-11T17:19:24.167Z,7.10
2019-01-11T17:21:56.815Z,7.10
2019-01-11T17:24:29.458Z,7.10
2019-01-11T17:27:02.126Z,7.10
2019-01-11T17:29:34.998Z,7.10
2019-01-11T17:32:07.654Z,7.10
2019-01-11T17:34:40.297Z,7.10
2019-01-11T17:37:12.962Z,7.10
2019-01-11T17:39:45.614Z,7.10
2019-01-11T17:42:18.261Z,7.10
2019-01-11T17:44:50.934Z,7.10
2019-01-11T17:47:23.626Z,7.00
2019-01-11T17:50:01.108Z,7.00
2019-01-11T17:52:30.879Z,7.00
2019-01-11T17:55:03.669Z,7.00
2019-01-11T17:57:36.322Z,7.00
2019-01-11T18:00:13.448Z,7.00
2019-01-11T18:02:46.098Z,7.00
2019-01-11T18:05:19.020Z,7.00
2019-01-11T18:07:51.672Z,7.10
2019-01-11T18:10:24.303Z,7.00
2019-01-11T18:12:56.958Z,7.00
2019-01-11T18:15:29.832Z,7.00
2019-01-11T18:18:02.488Z,7.10
2019-01-11T18:20:36.090Z,7.10
2019-01-11T18:23:10.266Z,7.10
2019-01-11T18:25:43.079Z,7.10
2019-01-11T18:28:15.718Z,7.10
2019-01-11T18:30:48.360Z,7.10
2019-01-11T18:33:21.037Z,7.10
2019-01-11T18:35:53.902Z,7.10
2019-01-11T18:38:26.783Z,7.00
2019-01-11T18:40:59.432Z,7.00
2019-01-11T18:43:32.086Z,7.00
2019-01-11T18:46:04.959Z,7.00
2019-01-11T18:48:37.648Z,7.00
2019-01-11T18:51:10.303Z,7.00
2019-01-11T18:53:42.965Z,7.00
2019-01-11T18:56:15.602Z,7.00
2019-01-11T18:58:48.270Z,6.90
2019-01-11T19:01:20.933Z,6.90
2019-01-11T19:03:53.586Z,7.00
2019-01-11T19:06:26.230Z,6.90
2019-01-11T19:08:58.938Z,6.90
2019-01-11T19:11:31.579Z,7.00
2019-01-11T19:14:04.242Z,7.00
2019-01-11T19:16:37.014Z,7.00
2019-01-11T19:19:09.662Z,6.90
2019-01-11T19:21:42.299Z,7.00
2019-01-11T19:24:15.018Z,7.00
2019-01-11T19:26:47.898Z,7.00
2019-01-11T19:29:20.545Z,7.00
2019-01-11T19:31:53.206Z,7.00
2019-01-11T19:34:25.886Z,7.00
2019-01-11T19:36:58.526Z,7.00
2019-01-11T19:39:31.211Z,7.00
2019-01-11T19:42:03.914Z,7.00
2019-01-11T19:44:36.566Z,7.00
2019-01-11T19:47:09.229Z,6.90
2019-01-11T19:49:41.874Z,6.90
2019-01-11T19:52:14.545Z,7.00
2019-01-11T19:54:47.234Z,7.00
2019-01-11T19:57:19.903Z,7.00
2019-01-11T19:59:52.562Z,7.00
2019-01-11T20:02:25.190Z,7.00
2019-01-11T20:04:57.851Z,7.00
2019-01-11T20:07:30.504Z,7.00
2019-01-11T20:10:03.821Z,7.00
2019-01-11T20:12:36.697Z,7.00
2019-01-11T20:15:09.347Z,6.90
2019-01-11T20:17:42.238Z,7.00
2019-01-11T20:20:14.915Z,6.90
2019-01-11T20:22:47.550Z,6.90
2019-01-11T20:25:21.158Z,6.90
2019-01-11T20:27:53.794Z,6.90
2019-01-11T20:30:27.042Z,7.00
2019-01-11T20:32:59.682Z,7.00
2019-01-11T20:35:33.159Z,6.90
2019-01-11T20:38:05.802Z,7.00
2019-01-11T20:40:38.445Z,7.00
2019-01-11T20:43:11.094Z,7.00
2019-01-11T20:45:43.766Z,7.00
2019-01-11T20:48:16.406Z,7.00
2019-01-11T20:50:49.059Z,7.00
2019-01-11T20:53:21.719Z,7.00
2019-01-11T20:55:54.407Z,7.00
2019-01-11T20:58:27.031Z,7.00
2019-01-11T21:00:59.683Z,7.00
2019-01-11T21:03:32.571Z,7.00
2019-01-11T21:06:05.230Z,7.00
2019-01-11T21:08:37.866Z,7.00
2019-01-11T21:11:10.514Z,7.00
2019-01-11T21:13:43.171Z,7.00
2019-01-11T21:16:15.834Z,7.00
2019-01-11T21:18:48.575Z,7.00
2019-01-11T21:21:21.232Z,7.00
2019-01-11T21:23:54.108Z,7.00
2019-01-11T21:26:26.796Z,7.00
2019-01-11T21:28:59.436Z,7.00
2019-01-11T21:31:32.091Z,7.00
2019-01-11T21:34:04.730Z,7.00
2019-01-11T21:36:37.390Z,7.00
2019-01-11T21:39:10.265Z,7.00
2019-01-11T21:41:43.168Z,6.90
2019-01-11T21:44:15.862Z,7.00
2019-01-11T21:46:48.516Z,7.00
2019-01-11T21:49:21.162Z,7.00
2019-01-11T21:51:53.818Z,7.00
2019-01-11T21:54:26.506Z,7.00
2019-01-11T21:56:59.174Z,7.00
2019-01-11T21:59:31.818Z,7.00
2019-01-11T22:02:04.482Z,7.00
2019-01-11T22:04:37.118Z,7.10
2019-01-11T22:07:09.808Z,7.10
2019-01-11T22:09:42.490Z,7.00
2019-01-11T22:12:15.135Z,7.10
2019-01-11T22:14:47.824Z,7.10
2019-01-11T22:17:20.468Z,7.10
2019-01-11T22:19:53.343Z,7.10
2019-01-11T22:22:25.998Z,7.00
2019-01-11T22:24:58.638Z,7.00
2019-01-11T22:27:31.405Z,7.10
2019-01-11T22:30:06.522Z,7.00
2019-01-11T22:32:39.187Z,7.00
2019-01-11T22:35:11.854Z,7.00
2019-01-11T22:37:44.530Z,7.00
2019-01-11T22:40:21.774Z,7.00
2019-01-11T22:42:56.749Z,6.90
2019-01-11T22:45:29.524Z,7.00
2019-01-11T22:48:02.160Z,6.90
2019-01-11T22:50:34.799Z,6.90
2019-01-11T22:53:07.690Z,6.90
2019-01-11T22:55:40.335Z,6.90
2019-01-11T22:58:12.992Z,6.90
2019-01-11T23:01:13.583Z,6.80
2019-01-11T23:03:49.147Z,6.80
2019-01-11T23:06:46.271Z,6.80
2019-01-11T23:09:21.396Z,6.80
2019-01-11T23:12:13.785Z,6.80
2019-01-11T23:14:46.443Z,6.80
2019-01-11T23:17:40.862Z,6.80
2019-01-11T23:20:13.864Z,6.80
2019-01-11T23:22:46.514Z,6.80
2019-01-11T23:25:19.171Z,6.80
2019-01-11T23:27:51.819Z,6.80
2019-01-11T23:30:24.503Z,6.80
2019-01-11T23:32:57.147Z,6.70
2019-01-11T23:35:30.067Z,6.70
2019-01-11T23:38:02.707Z,6.70
